createdAt,value
2022-10-01T00:02:01.950Z,26.50
2022-10-01T00:04:29.034Z,17.38
2022-10-01T00:06:59.128Z,21.15
2022-10-01T00:09:26.912Z,24.30
2022-10-01T00:11:53.893Z,23.95
2022-10-01T00:14:20.900Z,22.08
2022-10-01T00:16:47.873Z,18.38
2022-10-01T00:19:15.563Z,20.25
2022-10-01T00:21:42.664Z,28.10
2022-10-01T00:24:12.983Z,28.20
2022-10-01T00:26:40.443Z,25.50
2022-10-01T00:29:13.629Z,23.52
2022-10-01T00:31:40.920Z,22.08
2022-10-01T00:34:09.239Z,26.43
2022-10-01T00:36:36.129Z,34.75
2022-10-01T00:39:03.266Z,26.60
2022-10-01T00:41:33.963Z,29.55
2022-10-01T00:44:32.053Z,30.15
2022-10-01T00:47:23.672Z,28.27
2022-10-01T00:49:58.668Z,32.03
2022-10-01T00:52:31.836Z,27.65
2022-10-01T00:55:05.604Z,29.67
2022-10-01T00:57:34.454Z,24.70
2022-10-01T01:00:06.304Z,23.57
2022-10-01T01:02:33.539Z,30.30
2022-10-01T01:05:01.318Z,28.45
2022-10-01T01:07:31.551Z,20.17
2022-10-01T01:09:59.752Z,18.10
2022-10-01T01:13:34.340Z,20.80
2022-10-01T01:16:12.949Z,22.08
2022-10-01T01:19:04.059Z,20.75
2022-10-01T01:21:34.621Z,35.10
2022-10-01T01:24:23.276Z,20.30
2022-10-01T01:27:16.228Z,24.93
2022-10-01T01:30:05.261Z,28.00
2022-10-01T01:33:03.083Z,20.58
2022-10-01T01:35:38.055Z,21.02
2022-10-01T01:38:14.154Z,19.88
2022-10-01T01:40:44.708Z,17.40
2022-10-01T01:43:20.431Z,17.98
2022-10-01T01:45:52.307Z,19.20
2022-10-01T01:48:19.221Z,14.18
2022-10-01T01:51:18.753Z,16.55
2022-10-01T01:53:45.671Z,17.33
2022-10-01T01:56:12.620Z,15.68
2022-10-01T01:58:39.837Z,21.08
2022-10-01T02:01:06.908Z,18.08
2022-10-01T02:03:35.308Z,14.25
2022-10-01T02:06:49.746Z,15.10
2022-10-01T02:09:30.901Z,20.20
2022-10-01T02:12:24.264Z,16.95
2022-10-01T02:15:17.140Z,16.05
2022-10-01T02:18:53.637Z,15.85
2022-10-01T02:21:30.730Z,14.23
2022-10-01T02:24:30.487Z,17.48
2022-10-01T02:27:01.101Z,16.20
2022-10-01T02:29:29.487Z,15.45
2022-10-01T02:31:58.072Z,12.52
2022-10-01T02:34:30.291Z,16.67
2022-10-01T02:37:00.936Z,11.32
2022-10-01T02:39:30.901Z,15.10
2022-10-01T02:42:01.012Z,11.27
2022-10-01T02:44:38.049Z,12.32
2022-10-01T02:47:09.935Z,12.00
2022-10-01T02:49:41.263Z,14.50
2022-10-01T02:52:52.958Z,8.88
2022-10-01T02:55:28.665Z,7.88
2022-10-01T02:57:57.257Z,12.30
2022-10-01T03:00:26.913Z,11.87
2022-10-01T03:02:54.143Z,7.97
2022-10-01T03:05:21.788Z,8.73
2022-10-01T03:07:49.124Z,12.20
2022-10-01T03:10:17.138Z,9.23
2022-10-01T03:12:46.508Z,11.10
2022-10-01T03:15:16.348Z,12.52
2022-10-01T03:17:43.581Z,10.00
2022-10-01T03:20:12.118Z,9.68
2022-10-01T03:22:39.401Z,9.35
2022-10-01T03:25:06.688Z,9.30
2022-10-01T03:27:33.568Z,9.23
2022-10-01T03:30:00.445Z,9.38
2022-10-01T03:32:27.660Z,8.10
2022-10-01T03:34:54.582Z,10.98
2022-10-01T03:37:21.475Z,9.23
2022-10-01T03:39:48.350Z,12.63
2022-10-01T03:42:16.576Z,14.68
2022-10-01T03:44:43.979Z,12.85
2022-10-01T03:47:11.522Z,12.48
2022-10-01T03:49:38.566Z,12.70
2022-10-01T03:52:09.142Z,11.15
2022-10-01T03:54:35.999Z,12.35
2022-10-01T03:57:02.963Z,13.23
2022-10-01T03:59:29.858Z,12.88
2022-10-01T04:01:56.818Z,10.40
2022-10-01T04:04:23.816Z,12.05
2022-10-01T04:06:50.711Z,11.43
2022-10-01T04:09:17.578Z,13.23
2022-10-01T04:11:44.556Z,14.98
2022-10-01T04:14:11.458Z,12.07
2022-10-01T04:16:38.445Z,14.23
2022-10-01T04:19:05.758Z,14.90
2022-10-01T04:21:33.061Z,16.10
2022-10-01T04:24:00.995Z,13.70
2022-10-01T04:26:27.925Z,17.20
2022-10-01T04:28:54.795Z,14.02
2022-10-01T04:31:24.524Z,20.83
2022-10-01T04:33:57.367Z,13.93
2022-10-01T04:36:25.869Z,13.57
2022-10-01T04:39:01.742Z,20.47
2022-10-01T04:41:30.891Z,19.10
2022-10-01T04:43:59.656Z,17.02
2022-10-01T04:46:27.431Z,19.38
2022-10-01T04:48:54.350Z,20.40
2022-10-01T04:51:21.314Z,21.37
2022-10-01T04:53:48.228Z,17.60
2022-10-01T04:56:15.091Z,22.67
2022-10-01T04:58:42.176Z,17.05
2022-10-01T05:01:09.275Z,22.02
2022-10-01T05:03:36.183Z,27.43
2022-10-01T05:06:03.641Z,19.95
2022-10-01T05:08:31.109Z,17.50
2022-10-01T05:11:00.375Z,27.63
2022-10-01T05:13:29.885Z,19.63
2022-10-01T05:15:57.008Z,26.13
2022-10-01T05:18:24.036Z,23.27
2022-10-01T05:20:50.906Z,39.53
2022-10-01T05:23:17.803Z,29.75
2022-10-01T05:25:46.843Z,21.85
2022-10-01T05:28:17.133Z,21.47
2022-10-01T05:30:46.860Z,40.95
2022-10-01T05:33:13.763Z,21.27
2022-10-01T05:35:41.905Z,24.10
2022-10-01T05:38:08.833Z,21.17
2022-10-01T05:40:35.959Z,23.07
2022-10-01T05:43:04.218Z,25.77
2022-10-01T05:45:32.536Z,51.70
2022-10-01T05:48:02.808Z,37.28
2022-10-01T05:50:33.652Z,37.90
2022-10-01T05:53:02.043Z,39.07
2022-10-01T05:55:34.404Z,24.60
2022-10-01T05:58:04.750Z,23.65
2022-10-01T06:00:33.568Z,40.95
2022-10-01T06:03:02.223Z,20.00
2022-10-01T06:05:31.275Z,36.23
2022-10-01T06:07:58.339Z,40.88
2022-10-01T06:10:28.090Z,26.77
2022-10-01T06:13:01.122Z,56.03
2022-10-01T06:15:29.274Z,63.97
2022-10-01T06:17:56.464Z,31.60
2022-10-01T06:20:23.992Z,28.20
2022-10-01T06:22:56.983Z,31.70
2022-10-01T06:25:25.172Z,27.48
2022-10-01T06:27:58.374Z,24.92
2022-10-01T06:30:31.643Z,27.90
2022-10-01T06:33:08.916Z,27.20
2022-10-01T06:35:41.067Z,38.97
2022-10-01T06:38:09.328Z,27.17
2022-10-01T06:40:37.032Z,32.97
2022-10-01T06:43:05.738Z,25.50
2022-10-01T06:45:32.704Z,33.17
2022-10-01T06:48:02.929Z,32.60
2022-10-01T06:50:31.714Z,75.53
2022-10-01T06:52:59.936Z,32.17
2022-10-01T06:55:31.039Z,35.70
2022-10-01T06:58:07.638Z,27.05
2022-10-01T07:00:38.900Z,28.70
2022-10-01T07:03:10.886Z,45.90
2022-10-01T07:05:39.327Z,30.05
2022-10-01T07:08:07.467Z,30.73
2022-10-01T07:10:35.380Z,32.25
2022-10-01T07:13:20.781Z,29.10
2022-10-01T07:15:48.119Z,33.22
2022-10-01T07:18:15.136Z,28.60
2022-10-01T07:20:42.280Z,35.00
2022-10-01T07:23:13.913Z,38.70
2022-10-01T07:25:42.246Z,41.80
2022-10-01T07:28:17.708Z,46.67
2022-10-01T07:31:07.112Z,39.65
2022-10-01T07:33:34.620Z,48.50
2022-10-01T07:36:04.908Z,32.45
2022-10-01T07:38:33.389Z,45.92
2022-10-01T07:41:02.765Z,29.17
2022-10-01T07:43:31.425Z,50.47
2022-10-01T07:46:00.126Z,35.17
2022-10-01T07:48:28.200Z,24.45
2022-10-01T07:50:55.141Z,29.25
2022-10-01T07:53:25.286Z,20.33
2022-10-01T07:55:52.163Z,29.73
2022-10-01T07:58:23.655Z,20.97
2022-10-01T08:00:52.337Z,24.27
2022-10-01T08:03:19.234Z,20.92
2022-10-01T08:05:46.698Z,28.75
2022-10-01T08:08:13.592Z,28.63
2022-10-01T08:10:41.212Z,18.67
2022-10-01T08:13:15.747Z,26.08
2022-10-01T08:15:46.174Z,21.33
2022-10-01T08:18:14.158Z,22.50
2022-10-01T08:20:41.327Z,16.65
2022-10-01T08:23:11.291Z,24.73
2022-10-01T08:25:39.708Z,18.48
2022-10-01T08:28:07.858Z,22.92
2022-10-01T08:30:39.704Z,21.20
2022-10-01T08:33:08.039Z,20.40
2022-10-01T08:35:35.005Z,22.27
2022-10-01T08:38:06.642Z,14.60
2022-10-01T08:40:39.233Z,18.30
2022-10-01T08:43:09.424Z,23.48
2022-10-01T08:45:45.017Z,21.10
2022-10-01T08:48:30.941Z,16.97
2022-10-01T08:51:28.027Z,17.08
2022-10-01T08:54:13.403Z,15.43
2022-10-01T08:56:46.226Z,17.30
2022-10-01T08:59:29.942Z,17.10
2022-10-01T09:01:59.047Z,11.27
2022-10-01T09:04:27.634Z,17.45
2022-10-01T09:07:16.673Z,12.70
2022-10-01T09:10:13.254Z,12.57
2022-10-01T09:13:04.310Z,13.55
2022-10-01T09:15:52.935Z,15.97
2022-10-01T09:18:57.236Z,17.10
2022-10-01T09:21:56.045Z,15.85
2022-10-01T09:24:38.243Z,12.95
2022-10-01T09:27:27.012Z,17.10
2022-10-01T09:30:04.124Z,13.13
2022-10-01T09:32:38.686Z,17.33
2022-10-01T09:35:28.888Z,14.02
2022-10-01T09:38:07.871Z,24.27
2022-10-01T09:40:52.845Z,19.75
2022-10-01T09:43:21.865Z,12.27
2022-10-01T09:45:49.934Z,15.45
2022-10-01T09:49:01.382Z,16.75
2022-10-01T09:51:46.282Z,14.00
2022-10-01T09:54:31.061Z,15.45
2022-10-01T09:57:11.032Z,21.50
2022-10-01T10:00:12.144Z,13.82
2022-10-01T10:02:49.164Z,17.50
2022-10-01T10:05:19.804Z,18.08
2022-10-01T10:08:00.296Z,20.17
2022-10-01T10:10:39.391Z,18.27
2022-10-01T10:13:35.230Z,16.77
2022-10-01T10:16:10.738Z,17.63
2022-10-01T10:18:40.311Z,14.50
2022-10-01T10:21:19.352Z,17.73
2022-10-01T10:23:59.410Z,15.13
2022-10-01T10:26:39.207Z,15.88
2022-10-01T10:29:24.574Z,22.38
2022-10-01T10:31:51.787Z,13.98
2022-10-01T10:34:31.972Z,15.88
2022-10-01T10:37:04.940Z,15.37
2022-10-01T10:39:38.920Z,19.38
2022-10-01T10:42:07.093Z,14.52
2022-10-01T10:44:39.626Z,14.65
2022-10-01T10:47:15.569Z,14.10
2022-10-01T10:50:00.050Z,12.80
2022-10-01T10:52:36.953Z,17.83
2022-10-01T10:55:25.916Z,15.75
2022-10-01T10:57:57.601Z,13.40
2022-10-01T11:00:26.447Z,11.52
2022-10-01T11:03:04.529Z,15.67
2022-10-01T11:05:41.360Z,13.63
2022-10-01T11:08:20.663Z,13.63
2022-10-01T11:11:27.925Z,11.23
2022-10-01T11:14:09.513Z,10.48
2022-10-01T11:17:26.096Z,12.27
2022-10-01T11:20:37.402Z,13.27
2022-10-01T11:23:18.536Z,10.27
2022-10-01T11:26:19.893Z,15.43
2022-10-01T11:29:16.739Z,10.85
2022-10-01T11:32:11.004Z,18.00
2022-10-01T11:35:06.342Z,14.45
2022-10-01T11:38:17.649Z,13.93
2022-10-01T11:40:54.599Z,12.55
2022-10-01T11:43:38.825Z,14.85
2022-10-01T11:46:27.078Z,13.93
2022-10-01T11:49:41.817Z,11.50
2022-10-01T11:52:19.420Z,15.95
2022-10-01T11:55:36.707Z,12.50
2022-10-01T11:58:43.474Z,12.25
2022-10-01T12:01:18.688Z,14.37
2022-10-01T12:03:57.523Z,15.27
2022-10-01T12:06:33.902Z,11.82
2022-10-01T12:10:23.776Z,11.40
2022-10-01T12:13:23.148Z,11.75
2022-10-01T12:16:13.548Z,13.03
2022-10-01T12:18:54.568Z,16.30
2022-10-01T12:21:33.859Z,14.20
2022-10-01T12:24:14.364Z,17.67
2022-10-01T12:27:14.950Z,16.20
2022-10-01T12:30:21.988Z,13.50
2022-10-01T12:33:14.394Z,11.70
2022-10-01T12:36:25.046Z,23.60
2022-10-01T12:39:07.915Z,13.63
2022-10-01T12:42:15.045Z,12.68
2022-10-01T12:45:03.729Z,10.90
2022-10-01T12:47:46.507Z,11.88
2022-10-01T12:50:47.227Z,13.35
2022-10-01T12:53:38.991Z,13.18
2022-10-01T12:56:33.918Z,18.17
2022-10-01T12:59:36.660Z,13.70
2022-10-01T13:02:55.083Z,13.10
2022-10-01T13:06:09.339Z,18.05
2022-10-01T13:08:52.280Z,13.95
2022-10-01T13:11:50.958Z,10.98
2022-10-01T13:14:19.350Z,19.17
2022-10-01T13:17:19.232Z,15.80
2022-10-01T13:20:23.589Z,12.88
2022-10-01T13:23:11.720Z,15.88
2022-10-01T13:26:19.856Z,15.48
2022-10-01T13:29:27.767Z,13.43
2022-10-01T13:31:59.432Z,12.02
2022-10-01T13:34:38.641Z,15.23
2022-10-01T13:37:29.658Z,12.50
2022-10-01T13:39:58.499Z,16.58
2022-10-01T13:42:37.327Z,12.20
2022-10-01T13:45:08.571Z,14.02
2022-10-01T13:47:40.860Z,15.77
2022-10-01T13:50:27.781Z,10.73
2022-10-01T13:53:15.198Z,13.98
2022-10-01T13:55:45.477Z,9.80
2022-10-01T13:58:41.228Z,13.35
2022-10-01T14:01:38.280Z,13.00
2022-10-01T14:04:38.671Z,13.80
2022-10-01T14:07:24.119Z,14.82
2022-10-01T14:09:56.000Z,15.23
2022-10-01T14:12:52.104Z,12.45
2022-10-01T14:15:43.216Z,11.45
2022-10-01T14:18:17.692Z,19.48
2022-10-01T14:21:16.269Z,11.13
2022-10-01T14:24:05.276Z,11.97
2022-10-01T14:26:39.889Z,10.80
2022-10-01T14:29:29.719Z,12.10
2022-10-01T14:32:33.612Z,13.07
2022-10-01T14:35:20.831Z,12.38
2022-10-01T14:37:47.835Z,14.13
2022-10-01T14:40:21.087Z,13.48
2022-10-01T14:43:02.959Z,14.50
2022-10-01T14:45:30.346Z,14.20
2022-10-01T14:48:04.570Z,12.82
2022-10-01T14:50:36.854Z,17.10
2022-10-01T14:53:04.521Z,12.82
2022-10-01T14:55:31.872Z,17.02
2022-10-01T14:57:59.122Z,13.25
2022-10-01T15:00:32.307Z,14.23
2022-10-01T15:03:13.180Z,15.33
2022-10-01T15:05:40.083Z,13.40
2022-10-01T15:08:39.324Z,14.63
2022-10-01T15:11:30.772Z,16.92
2022-10-01T15:14:05.131Z,21.10
2022-10-01T15:16:35.451Z,17.43
2022-10-01T15:19:19.560Z,17.98
2022-10-01T15:21:51.136Z,16.92
2022-10-01T15:24:41.129Z,16.45
2022-10-01T15:27:13.806Z,12.85
2022-10-01T15:29:42.624Z,15.57
2022-10-01T15:32:15.042Z,16.80
2022-10-01T15:34:47.643Z,15.63
2022-10-01T15:37:31.276Z,17.75
2022-10-01T15:39:59.160Z,19.30
2022-10-01T15:42:32.733Z,13.50
2022-10-01T15:45:08.719Z,16.33
2022-10-01T15:47:51.790Z,13.93
2022-10-01T15:50:26.429Z,14.65
2022-10-01T15:53:16.504Z,12.07
2022-10-01T15:55:50.543Z,12.50
2022-10-01T15:58:23.271Z,12.77
2022-10-01T16:01:17.713Z,14.82
2022-10-01T16:04:00.812Z,14.82
2022-10-01T16:06:40.054Z,13.88
2022-10-01T16:09:19.940Z,14.17
2022-10-01T16:12:09.785Z,13.43
2022-10-01T16:14:44.625Z,7.18
2022-10-01T16:17:17.600Z,15.40
2022-10-01T16:19:52.922Z,13.65
2022-10-01T16:22:19.788Z,10.60
2022-10-01T16:24:49.454Z,11.70
2022-10-01T16:27:18.865Z,16.25
2022-10-01T16:30:05.781Z,18.90
2022-10-01T16:32:33.889Z,10.27
2022-10-01T16:35:17.030Z,12.40
2022-10-01T16:37:45.519Z,18.73
2022-10-01T16:40:16.237Z,12.30
2022-10-01T16:42:44.978Z,11.73
2022-10-01T16:45:24.541Z,11.13
2022-10-01T16:47:53.648Z,12.10
2022-10-01T16:50:22.498Z,10.80
2022-10-01T16:52:54.122Z,17.27
2022-10-01T16:55:32.350Z,19.75
2022-10-01T16:57:59.232Z,13.40
2022-10-01T17:00:27.760Z,14.40
2022-10-01T17:02:56.215Z,12.43
2022-10-01T17:05:35.526Z,13.45
2022-10-01T17:08:05.101Z,12.65
2022-10-01T17:10:47.991Z,10.15
2022-10-01T17:13:16.044Z,10.53
2022-10-01T17:15:43.610Z,10.15
2022-10-01T17:18:10.875Z,12.57
2022-10-01T17:20:38.154Z,16.55
2022-10-01T17:23:06.012Z,10.52
2022-10-01T17:25:38.276Z,12.47
2022-10-01T17:28:13.823Z,12.10
2022-10-01T17:30:46.429Z,11.35
2022-10-01T17:33:15.392Z,11.65
2022-10-01T17:35:44.954Z,11.48
2022-10-01T17:38:12.869Z,10.17
2022-10-01T17:40:41.604Z,9.07
2022-10-01T17:43:12.501Z,10.60
2022-10-01T17:45:39.651Z,12.30
2022-10-01T17:48:06.627Z,13.27
2022-10-01T17:50:33.575Z,12.63
2022-10-01T17:53:01.317Z,9.38
2022-10-01T17:55:28.487Z,9.55
2022-10-01T17:57:55.787Z,13.20
2022-10-01T18:00:22.676Z,13.82
2022-10-01T18:02:49.651Z,15.20
2022-10-01T18:05:17.147Z,15.45
2022-10-01T18:07:44.139Z,15.15
2022-10-01T18:10:13.377Z,15.85
2022-10-01T18:12:41.085Z,16.83
2022-10-01T18:15:08.896Z,15.20
2022-10-01T18:17:42.935Z,16.83
2022-10-01T18:20:10.639Z,21.60
2022-10-01T18:22:37.967Z,14.75
2022-10-01T18:25:08.251Z,13.38
2022-10-01T18:27:35.306Z,20.07
2022-10-01T18:30:02.338Z,16.08
2022-10-01T18:32:40.175Z,16.75
2022-10-01T18:35:25.488Z,15.35
2022-10-01T18:37:56.248Z,17.33
2022-10-01T18:40:42.887Z,14.20
2022-10-01T18:43:18.112Z,19.55
2022-10-01T18:46:35.863Z,19.45
2022-10-01T18:49:27.124Z,17.13
2022-10-01T18:52:24.299Z,20.88
2022-10-01T18:55:21.299Z,14.27
2022-10-01T18:58:19.721Z,13.13
2022-10-01T19:01:33.218Z,19.90
2022-10-01T19:04:37.267Z,16.77
2022-10-01T19:07:56.504Z,20.52
2022-10-01T19:10:50.739Z,18.17
2022-10-01T19:13:54.484Z,15.23
2022-10-01T19:17:12.735Z,17.33
2022-10-01T19:20:14.948Z,23.42
2022-10-01T19:22:53.723Z,22.45
2022-10-01T19:25:43.611Z,18.20
2022-10-01T19:28:53.637Z,18.23
2022-10-01T19:31:58.413Z,18.83
2022-10-01T19:34:35.693Z,19.90
2022-10-01T19:37:25.531Z,19.67
2022-10-01T19:39:58.052Z,16.80
2022-10-01T19:42:33.608Z,17.45
2022-10-01T19:45:25.976Z,20.23
2022-10-01T19:48:20.052Z,20.20
2022-10-01T19:51:07.562Z,16.35
2022-10-01T19:53:39.284Z,13.60
2022-10-01T19:56:10.602Z,17.40
2022-10-01T19:58:37.470Z,18.65
2022-10-01T20:01:04.948Z,21.27
2022-10-01T20:03:39.992Z,17.95
2022-10-01T20:06:23.653Z,15.20
2022-10-01T20:09:30.963Z,19.58
2022-10-01T20:12:11.164Z,19.60
2022-10-01T20:15:16.303Z,15.85
2022-10-01T20:18:13.284Z,16.52
2022-10-01T20:21:03.418Z,22.03
2022-10-01T20:23:43.443Z,18.23
2022-10-01T20:26:21.315Z,10.95
2022-10-01T20:29:38.006Z,17.92
2022-10-01T20:32:21.751Z,22.38
2022-10-01T20:35:07.666Z,22.13
2022-10-01T20:37:56.371Z,13.32
2022-10-01T20:40:38.269Z,16.23
2022-10-01T20:43:17.386Z,12.20
2022-10-01T20:45:47.643Z,22.08
2022-10-01T20:48:22.288Z,13.57
2022-10-01T20:51:00.742Z,16.55
2022-10-01T20:54:11.401Z,15.73
2022-10-01T20:56:44.622Z,17.08
2022-10-01T20:59:25.405Z,20.52
2022-10-01T21:02:02.997Z,21.53
2022-10-01T21:04:40.953Z,19.85
2022-10-01T21:07:43.611Z,13.73
2022-10-01T21:10:46.033Z,17.40
2022-10-01T21:13:32.255Z,17.77
2022-10-01T21:16:15.878Z,16.40
2022-10-01T21:19:26.444Z,22.70
2022-10-01T21:22:32.160Z,17.30
2022-10-01T21:25:13.050Z,16.40
2022-10-01T21:28:05.037Z,22.25
2022-10-01T21:31:21.663Z,21.33
2022-10-01T21:34:15.004Z,20.27
2022-10-01T21:37:05.288Z,20.38
2022-10-01T21:40:11.244Z,25.27
2022-10-01T21:42:55.853Z,22.05
2022-10-01T21:45:50.697Z,22.77
2022-10-01T21:48:46.822Z,24.77
2022-10-01T21:52:17.115Z,24.20
2022-10-01T21:55:21.064Z,30.08
2022-10-01T21:58:02.303Z,21.73
2022-10-01T22:00:30.529Z,25.63
2022-10-01T22:03:34.171Z,25.23
2022-10-01T22:06:16.611Z,34.55
2022-10-01T22:09:22.257Z,25.33
2022-10-01T22:11:54.655Z,28.83
2022-10-01T22:14:22.608Z,27.77
2022-10-01T22:17:09.053Z,34.35
2022-10-01T22:19:40.357Z,32.08
2022-10-01T22:22:22.102Z,29.33
2022-10-01T22:24:53.120Z,33.30
2022-10-01T22:27:46.424Z,31.97
2022-10-01T22:30:18.644Z,30.05
2022-10-01T22:33:10.287Z,29.70
2022-10-01T22:35:49.012Z,31.27
2022-10-01T22:38:42.759Z,35.17
2022-10-01T22:41:31.700Z,33.93
2022-10-01T22:43:59.779Z,42.53
2022-10-01T22:46:57.928Z,31.55
2022-10-01T22:50:11.208Z,38.72
2022-10-01T22:53:18.112Z,40.47
2022-10-01T22:55:57.198Z,25.00
2022-10-01T22:59:22.693Z,21.92
2022-10-01T23:02:31.011Z,29.83
2022-10-01T23:05:13.259Z,17.50
2022-10-01T23:08:00.429Z,26.38
2022-10-01T23:10:44.756Z,30.37
2022-10-01T23:13:29.980Z,26.77
2022-10-01T23:16:28.450Z,23.45
2022-10-01T23:19:30.006Z,22.35
2022-10-01T23:22:02.661Z,27.05
2022-10-01T23:24:53.076Z,35.17
2022-10-01T23:28:09.586Z,25.55
2022-10-01T23:31:22.757Z,24.88
2022-10-01T23:34:00.333Z,28.77
2022-10-01T23:36:39.087Z,28.25
2022-10-01T23:39:48.953Z,23.07
2022-10-01T23:42:46.253Z,26.27
2022-10-01T23:45:28.959Z,23.10
2022-10-01T23:48:12.892Z,23.20
2022-10-01T23:51:00.272Z,19.17
2022-10-01T23:53:50.663Z,22.83
2022-10-01T23:56:48.621Z,20.05
2022-10-01T23:59:59.241Z,15.60
